createdAt,value
2023-03-02T00:00:36.401Z,4.97
2023-03-02T00:03:03.863Z,4.28
2023-03-02T00:05:31.624Z,5.47
2023-03-02T00:07:59.313Z,5.13
2023-03-02T00:10:26.691Z,4.53
2023-03-02T00:12:54.094Z,4.28
2023-03-02T00:15:21.465Z,4.38
2023-03-02T00:17:50.183Z,4.95
2023-03-02T00:20:17.595Z,3.97
2023-03-02T00:22:45.688Z,3.92
2023-03-02T00:25:13.539Z,4.82
2023-03-02T00:27:41.135Z,4.63
2023-03-02T00:30:10.012Z,5.50
2023-03-02T00:32:37.471Z,4.53
2023-03-02T00:35:07.086Z,4.50
2023-03-02T00:37:35.819Z,4.47
2023-03-02T00:40:04.685Z,5.00
2023-03-02T00:42:32.068Z,4.22
2023-03-02T00:45:01.318Z,4.68
2023-03-02T00:47:29.476Z,4.50
2023-03-02T00:49:56.873Z,5.15
2023-03-02T00:52:25.574Z,4.53
2023-03-02T00:54:52.939Z,4.10
2023-03-02T00:57:20.311Z,6.00
2023-03-02T00:59:47.677Z,3.42
2023-03-02T01:02:15.101Z,4.43
2023-03-02T01:04:43.357Z,3.75
2023-03-02T01:07:11.850Z,4.70
2023-03-02T01:09:41.003Z,4.32
2023-03-02T01:12:10.320Z,5.28
2023-03-02T01:14:37.754Z,5.50
2023-03-02T01:17:05.277Z,4.78
2023-03-02T01:19:32.819Z,4.53
2023-03-02T01:22:00.246Z,4.88
2023-03-02T01:24:27.765Z,4.20
2023-03-02T01:26:56.504Z,5.30
2023-03-02T01:29:23.873Z,4.75
2023-03-02T01:31:51.427Z,4.13
2023-03-02T01:34:18.877Z,6.25
2023-03-02T01:36:46.374Z,5.38
2023-03-02T01:39:15.708Z,4.45
2023-03-02T01:41:43.182Z,5.38
2023-03-02T01:44:37.136Z,4.93
2023-03-02T01:47:04.932Z,5.20
2023-03-02T01:49:32.576Z,5.35
2023-03-02T01:52:00.170Z,8.32
2023-03-02T01:54:27.540Z,6.97
2023-03-02T01:56:56.802Z,7.93
2023-03-02T01:59:24.328Z,6.37
2023-03-02T02:01:54.766Z,7.30
2023-03-02T02:04:22.203Z,6.95
2023-03-02T02:06:51.947Z,8.15
2023-03-02T02:09:19.460Z,7.25
2023-03-02T02:11:47.011Z,7.28
2023-03-02T02:14:14.405Z,7.75
2023-03-02T02:16:42.128Z,7.32
2023-03-02T02:19:16.106Z,8.15
2023-03-02T02:21:43.467Z,8.25
2023-03-02T02:24:12.415Z,7.35
2023-03-02T02:26:42.725Z,7.50
2023-03-02T02:29:12.293Z,9.75
2023-03-02T02:31:41.544Z,8.13
2023-03-02T02:34:13.110Z,6.95
2023-03-02T02:36:42.335Z,13.85
2023-03-02T02:39:11.379Z,8.30
2023-03-02T02:41:40.671Z,7.63
2023-03-02T02:44:10.498Z,8.63
2023-03-02T02:46:37.893Z,7.68
2023-03-02T02:49:07.188Z,9.95
2023-03-02T02:51:35.401Z,9.30
2023-03-02T02:54:03.600Z,7.85
2023-03-02T02:56:32.355Z,9.23
2023-03-02T02:59:03.152Z,8.93
2023-03-02T03:01:30.586Z,9.35
2023-03-02T03:03:59.087Z,9.30
2023-03-02T03:06:27.795Z,9.38
2023-03-02T03:09:00.170Z,9.45
2023-03-02T03:11:28.544Z,10.05
2023-03-02T03:14:06.175Z,9.30
2023-03-02T03:16:34.295Z,9.90
2023-03-02T03:19:06.442Z,7.30
2023-03-02T03:21:33.820Z,9.98
2023-03-02T03:24:01.233Z,8.35
2023-03-02T03:26:28.622Z,10.43
2023-03-02T03:28:57.139Z,7.72
2023-03-02T03:31:26.478Z,7.55
2023-03-02T03:33:54.214Z,9.23
2023-03-02T03:36:21.596Z,8.68
2023-03-02T03:38:49.287Z,8.25
2023-03-02T03:41:16.661Z,8.88
2023-03-02T03:43:44.037Z,7.05
2023-03-02T03:46:11.473Z,7.43
2023-03-02T03:48:40.590Z,8.43
2023-03-02T03:51:07.967Z,7.25
2023-03-02T03:53:35.344Z,7.35
2023-03-02T03:56:03.698Z,7.43
2023-03-02T03:58:31.323Z,7.45
2023-03-02T04:00:58.747Z,7.30
2023-03-02T04:03:26.966Z,6.72
2023-03-02T04:05:55.634Z,7.22
2023-03-02T04:08:23.110Z,6.53
2023-03-02T04:10:50.515Z,6.75
2023-03-02T04:13:17.900Z,6.22
2023-03-02T04:15:47.063Z,6.38
2023-03-02T04:18:14.610Z,6.70
2023-03-02T04:20:41.981Z,7.38
2023-03-02T04:23:10.741Z,7.25
2023-03-02T04:25:38.108Z,6.07
2023-03-02T04:28:05.791Z,4.93
2023-03-02T04:30:33.618Z,7.05
2023-03-02T04:33:01.065Z,5.78
2023-03-02T04:35:28.481Z,5.55
2023-03-02T04:37:55.935Z,7.32
2023-03-02T04:40:24.649Z,6.13
2023-03-02T04:42:52.036Z,5.65
2023-03-02T04:45:19.437Z,6.60
2023-03-02T04:47:46.823Z,6.45
2023-03-02T04:50:14.866Z,4.78
2023-03-02T04:52:42.451Z,6.30
2023-03-02T04:55:11.247Z,6.63
2023-03-02T04:57:39.933Z,6.75
2023-03-02T05:00:10.224Z,7.13
2023-03-02T05:02:37.656Z,6.53
2023-03-02T05:05:05.501Z,7.20
2023-03-02T05:07:32.883Z,6.93
2023-03-02T05:10:00.307Z,6.90
2023-03-02T05:12:27.800Z,8.20
2023-03-02T05:14:56.512Z,8.05
2023-03-02T05:17:23.888Z,6.05
2023-03-02T05:19:51.290Z,6.90
2023-03-02T05:22:18.654Z,8.20
2023-03-02T05:24:46.061Z,9.52
2023-03-02T05:27:13.454Z,6.22
2023-03-02T05:29:40.841Z,6.22
2023-03-02T05:32:10.299Z,6.80
2023-03-02T05:34:37.725Z,8.10
2023-03-02T05:37:05.104Z,8.57
2023-03-02T05:39:32.502Z,7.47
2023-03-02T05:41:59.894Z,6.38
2023-03-02T05:44:27.277Z,8.15
2023-03-02T05:46:54.699Z,7.60
2023-03-02T05:49:23.502Z,8.25
2023-03-02T05:51:50.874Z,7.85
2023-03-02T05:54:18.264Z,7.20
2023-03-02T05:56:45.647Z,9.98
2023-03-02T05:59:13.128Z,8.93
2023-03-02T06:01:40.549Z,7.75
2023-03-02T06:04:08.084Z,9.13
2023-03-02T06:06:36.986Z,8.60
2023-03-02T06:09:04.701Z,10.35
2023-03-02T06:11:32.073Z,8.45
2023-03-02T06:13:59.469Z,8.63
2023-03-02T06:16:27.013Z,10.35
2023-03-02T06:18:54.461Z,8.10
2023-03-02T06:21:21.836Z,8.52
2023-03-02T06:23:50.557Z,8.38
2023-03-02T06:26:17.926Z,9.13
2023-03-02T06:28:53.856Z,10.98
2023-03-02T06:31:22.424Z,10.45
2023-03-02T06:33:50.100Z,9.88
2023-03-02T06:36:18.075Z,8.95
2023-03-02T06:38:45.517Z,10.75
2023-03-02T06:41:14.221Z,9.55
2023-03-02T06:43:41.594Z,12.95
2023-03-02T06:46:09.029Z,15.02
2023-03-02T06:48:36.493Z,11.68
2023-03-02T06:51:03.868Z,10.32
2023-03-02T06:53:31.284Z,9.00
2023-03-02T06:55:58.655Z,12.38
2023-03-02T06:58:27.387Z,12.00
2023-03-02T07:00:54.821Z,11.07
2023-03-02T07:03:22.402Z,9.50
2023-03-02T07:05:51.712Z,11.27
2023-03-02T07:08:19.141Z,9.43
2023-03-02T07:10:46.568Z,11.50
2023-03-02T07:13:13.939Z,8.00
2023-03-02T07:15:42.624Z,8.90
2023-03-02T07:18:09.999Z,9.02
2023-03-02T07:20:38.132Z,8.38
2023-03-02T07:23:05.525Z,8.90
2023-03-02T07:25:32.932Z,7.88
2023-03-02T07:28:00.327Z,7.68
2023-03-02T07:30:27.852Z,8.80
2023-03-02T07:32:57.518Z,8.40
2023-03-02T07:35:24.986Z,9.45
2023-03-02T07:37:52.706Z,9.93
2023-03-02T07:40:20.669Z,9.15
2023-03-02T07:42:48.070Z,6.50
2023-03-02T07:45:16.664Z,8.88
2023-03-02T07:47:44.056Z,8.95
2023-03-02T07:50:13.101Z,8.70
2023-03-02T07:52:40.514Z,9.77
2023-03-02T07:55:08.558Z,9.35
2023-03-02T07:57:35.967Z,7.75
2023-03-02T08:00:03.410Z,8.98
2023-03-02T08:02:30.957Z,9.13
2023-03-02T08:04:58.417Z,8.77
2023-03-02T08:07:27.117Z,8.50
2023-03-02T08:09:54.545Z,9.65
2023-03-02T08:12:21.922Z,8.65
2023-03-02T08:14:49.290Z,8.07
2023-03-02T08:17:16.665Z,8.88
2023-03-02T08:19:44.068Z,7.53
2023-03-02T08:22:11.957Z,8.93
2023-03-02T08:24:41.698Z,8.30
2023-03-02T08:27:09.791Z,7.20
2023-03-02T08:29:37.167Z,8.35
2023-03-02T08:32:04.866Z,7.00
2023-03-02T08:34:32.536Z,8.25
2023-03-02T08:36:59.904Z,8.48
2023-03-02T08:39:30.191Z,8.20
2023-03-02T08:41:58.926Z,10.15
2023-03-02T08:44:26.324Z,8.18
2023-03-02T08:46:54.938Z,7.25
2023-03-02T08:49:22.355Z,9.32
2023-03-02T08:51:53.350Z,8.38
2023-03-02T08:54:21.178Z,8.18
2023-03-02T08:56:48.785Z,11.88
2023-03-02T08:59:18.117Z,8.32
2023-03-02T09:01:45.636Z,10.57
2023-03-02T09:04:13.157Z,8.88
2023-03-02T09:06:41.733Z,8.63
2023-03-02T09:09:09.357Z,9.00
2023-03-02T09:11:36.744Z,9.77
2023-03-02T09:14:04.202Z,9.55
2023-03-02T09:16:32.911Z,9.98
2023-03-02T09:19:00.368Z,6.95
2023-03-02T09:21:27.754Z,8.65
2023-03-02T09:23:57.896Z,13.95
2023-03-02T09:28:52.937Z,11.98
2023-03-02T09:31:20.423Z,9.93
2023-03-02T09:33:49.136Z,10.95
2023-03-02T09:36:19.417Z,11.07
2023-03-02T09:38:46.889Z,12.40
2023-03-02T09:41:55.049Z,12.30
2023-03-02T09:44:41.368Z,9.63
2023-03-02T09:47:12.628Z,11.60
2023-03-02T09:49:47.476Z,10.57
2023-03-02T09:52:21.520Z,10.93
2023-03-02T09:54:48.912Z,11.43
2023-03-02T09:57:21.772Z,9.43
2023-03-02T09:59:50.988Z,9.27
2023-03-02T10:02:24.203Z,9.13
2023-03-02T10:04:54.629Z,11.75
2023-03-02T10:07:25.722Z,11.85
2023-03-02T10:09:53.115Z,9.98
2023-03-02T10:12:32.103Z,9.48
2023-03-02T10:15:02.150Z,10.35
2023-03-02T10:17:43.921Z,12.60
2023-03-02T10:20:15.709Z,154.90
2023-03-02T10:22:44.669Z,141.93
2023-03-02T10:25:18.778Z,107.50
2023-03-02T10:27:50.284Z,79.97
2023-03-02T10:30:20.137Z,44.75
2023-03-02T10:32:48.688Z,71.40
2023-03-02T10:35:19.162Z,56.92
2023-03-02T10:37:46.628Z,54.10
2023-03-02T10:40:22.064Z,53.60
2023-03-02T10:42:49.506Z,42.50
2023-03-02T10:45:20.009Z,41.38
2023-03-02T10:47:47.391Z,41.00
2023-03-02T10:50:23.688Z,47.47
2023-03-02T10:52:59.710Z,39.28
2023-03-02T10:55:27.775Z,34.15
2023-03-02T10:58:00.984Z,28.95
2023-03-02T11:00:29.072Z,24.67
2023-03-02T11:02:57.174Z,37.17
2023-03-02T11:05:29.875Z,28.65
2023-03-02T11:07:58.203Z,34.78
2023-03-02T11:10:26.915Z,27.35
2023-03-02T11:12:54.890Z,26.83
2023-03-02T11:15:25.159Z,25.15
2023-03-02T11:17:55.648Z,29.10
2023-03-02T11:20:24.928Z,26.35
2023-03-02T11:23:03.712Z,23.40
2023-03-02T11:25:32.975Z,20.98
2023-03-02T11:28:03.178Z,18.57
2023-03-02T11:33:00.974Z,23.40
2023-03-02T11:35:31.893Z,20.63
2023-03-02T11:38:05.100Z,23.98
2023-03-02T11:40:33.742Z,15.93
2023-03-02T11:43:01.469Z,17.15
2023-03-02T11:45:30.688Z,17.58
2023-03-02T11:48:03.349Z,18.05
2023-03-02T11:50:31.504Z,13.98
2023-03-02T11:52:59.661Z,18.15
2023-03-02T11:55:28.872Z,18.35
2023-03-02T11:57:57.695Z,17.20
2023-03-02T12:00:31.389Z,12.77
2023-03-02T12:03:00.275Z,14.13
2023-03-02T12:05:28.593Z,14.65
2023-03-02T12:07:59.497Z,13.52
2023-03-02T12:10:33.983Z,12.93
2023-03-02T12:13:07.666Z,12.30
2023-03-02T12:15:37.847Z,12.48
2023-03-02T12:20:43.805Z,11.52
2023-03-02T12:23:22.567Z,12.80
2023-03-02T12:25:51.991Z,11.13
2023-03-02T12:28:31.210Z,9.65
2023-03-02T12:31:03.729Z,11.50
2023-03-02T12:33:31.158Z,15.88
2023-03-02T12:36:06.382Z,10.45
2023-03-02T12:38:36.668Z,10.68
2023-03-02T12:41:17.499Z,10.15
2023-03-02T12:43:45.536Z,10.00
2023-03-02T12:46:30.043Z,9.73
2023-03-02T12:49:05.929Z,9.90
2023-03-02T12:51:35.201Z,8.63
2023-03-02T12:54:03.366Z,9.38
2023-03-02T12:56:32.074Z,11.13
2023-03-02T12:59:00.120Z,8.95
2023-03-02T13:01:28.698Z,9.63
2023-03-02T13:03:56.347Z,8.40
2023-03-02T13:06:24.477Z,7.82
2023-03-02T13:08:53.861Z,7.53
2023-03-02T13:11:22.714Z,9.48
2023-03-02T13:13:51.426Z,9.07
2023-03-02T13:16:21.094Z,8.75
2023-03-02T13:18:49.771Z,8.70
2023-03-02T13:21:17.196Z,8.07
2023-03-02T13:23:46.312Z,8.63
2023-03-02T13:26:24.700Z,7.70
2023-03-02T13:29:02.849Z,7.70
2023-03-02T13:31:30.338Z,9.05
2023-03-02T13:33:57.867Z,8.18
2023-03-02T13:36:26.204Z,8.93
2023-03-02T13:38:54.385Z,7.78
2023-03-02T13:41:23.023Z,8.23
2023-03-02T13:43:50.391Z,6.97
2023-03-02T13:46:36.692Z,7.32
2023-03-02T13:49:10.730Z,5.93
2023-03-02T13:51:40.496Z,7.80
2023-03-02T13:54:15.805Z,6.10
2023-03-02T13:56:44.045Z,7.20
2023-03-02T13:59:12.453Z,6.60
2023-03-02T14:01:41.651Z,7.45
2023-03-02T14:04:10.207Z,6.90
2023-03-02T14:06:37.675Z,6.88
2023-03-02T14:09:05.154Z,6.95
2023-03-02T14:11:35.652Z,7.18
2023-03-02T14:14:03.159Z,7.13
2023-03-02T14:16:30.984Z,6.70
2023-03-02T14:18:59.870Z,5.60
2023-03-02T14:21:27.405Z,6.25
2023-03-02T14:23:54.909Z,7.32
2023-03-02T14:26:31.319Z,7.80
2023-03-02T14:29:05.494Z,5.90
2023-03-02T14:31:33.739Z,5.78
2023-03-02T14:34:02.566Z,6.60
2023-03-02T14:36:30.933Z,5.32
2023-03-02T14:38:58.552Z,5.60
2023-03-02T14:41:25.932Z,6.57
2023-03-02T14:43:53.306Z,5.93
2023-03-02T14:46:20.731Z,7.93
2023-03-02T14:48:48.232Z,7.38
2023-03-02T14:51:21.188Z,5.93
2023-03-02T14:53:49.394Z,6.78
2023-03-02T14:56:16.804Z,7.13
2023-03-02T14:58:44.189Z,6.82
2023-03-02T15:01:12.161Z,7.05
2023-03-02T15:03:39.615Z,5.40
2023-03-02T15:06:08.100Z,6.40
2023-03-02T15:08:38.269Z,7.82
2023-03-02T15:13:33.003Z,4.80
2023-03-02T15:16:00.543Z,6.10
2023-03-02T15:18:27.980Z,5.18
2023-03-02T15:20:55.354Z,5.40
2023-03-02T15:23:22.759Z,5.72
2023-03-02T15:25:51.447Z,6.35
2023-03-02T15:28:18.872Z,5.97
2023-03-02T15:30:47.381Z,6.03
2023-03-02T15:33:14.761Z,5.82
2023-03-02T15:35:42.258Z,6.40
2023-03-02T15:38:09.659Z,4.97
2023-03-02T15:40:37.098Z,5.93
2023-03-02T15:43:05.836Z,7.90
2023-03-02T15:45:33.243Z,5.45
2023-03-02T15:48:00.690Z,5.50
2023-03-02T15:50:28.075Z,6.35
2023-03-02T15:52:57.288Z,6.68
2023-03-02T15:55:24.786Z,6.13
2023-03-02T15:57:52.203Z,5.95
2023-03-02T16:00:22.033Z,5.57
2023-03-02T16:02:49.547Z,8.30
2023-03-02T16:05:17.612Z,5.80
2023-03-02T16:07:45.060Z,6.15
2023-03-02T16:10:16.290Z,6.93
2023-03-02T16:12:43.785Z,7.50
2023-03-02T16:15:11.726Z,7.43
2023-03-02T16:17:40.439Z,6.85
2023-03-02T16:20:08.485Z,7.97
2023-03-02T16:22:35.882Z,6.93
2023-03-02T16:25:03.286Z,6.55
2023-03-02T16:27:31.201Z,6.40
2023-03-02T16:29:58.625Z,6.95
2023-03-02T16:32:26.092Z,6.95
2023-03-02T16:34:56.011Z,7.05
2023-03-02T16:37:23.501Z,6.97
2023-03-02T16:39:50.940Z,8.23
2023-03-02T16:42:18.429Z,7.38
2023-03-02T16:44:45.866Z,7.68
2023-03-02T16:47:13.298Z,7.60
2023-03-02T16:49:40.705Z,8.25
2023-03-02T16:52:09.404Z,8.40
2023-03-02T16:54:36.803Z,9.18
2023-03-02T16:57:04.214Z,8.15
2023-03-02T16:59:31.593Z,8.43
2023-03-02T17:01:58.980Z,9.77
2023-03-02T17:04:26.428Z,8.52
2023-03-02T17:07:01.505Z,8.82
2023-03-02T17:09:30.404Z,9.50
2023-03-02T17:11:57.873Z,9.50
2023-03-02T17:14:25.290Z,8.55
2023-03-02T17:16:52.706Z,10.10
2023-03-02T17:19:20.551Z,12.82
2023-03-02T17:21:47.954Z,12.07
2023-03-02T17:24:15.337Z,11.23
2023-03-02T17:26:46.680Z,13.05
2023-03-02T17:29:14.069Z,11.18
2023-03-02T17:31:41.449Z,10.55
2023-03-02T17:34:08.831Z,9.95
2023-03-02T17:36:36.887Z,12.82
2023-03-02T17:39:04.543Z,12.48
2023-03-02T17:41:31.995Z,12.07
2023-03-02T17:44:01.197Z,11.73
2023-03-02T17:46:28.790Z,12.20
2023-03-02T17:48:57.435Z,11.50
2023-03-02T17:51:25.127Z,12.95
2023-03-02T17:53:53.152Z,11.77
2023-03-02T17:56:21.985Z,13.60
2023-03-02T17:58:52.441Z,12.80
2023-03-02T18:01:21.119Z,13.07
2023-03-02T18:03:48.536Z,11.82
2023-03-02T18:06:17.844Z,12.90
2023-03-02T18:08:45.276Z,13.67
2023-03-02T18:11:12.683Z,12.15
2023-03-02T18:13:40.579Z,13.73
2023-03-02T18:16:08.117Z,12.95
2023-03-02T18:18:36.832Z,12.88
2023-03-02T18:21:04.454Z,12.80
2023-03-02T18:23:32.102Z,13.07
2023-03-02T18:25:59.479Z,12.65
2023-03-02T18:28:26.875Z,11.50
2023-03-02T18:30:54.377Z,12.65
2023-03-02T18:33:21.925Z,13.23
2023-03-02T18:35:50.649Z,11.38
2023-03-02T18:38:18.140Z,12.95
2023-03-02T18:40:45.525Z,10.57
2023-03-02T18:43:12.932Z,11.13
2023-03-02T18:45:41.367Z,11.68
2023-03-02T18:48:08.764Z,11.02
2023-03-02T18:50:36.934Z,11.48
2023-03-02T18:53:05.639Z,11.35
2023-03-02T18:55:33.084Z,10.18
2023-03-02T18:58:00.498Z,11.48
2023-03-02T19:00:28.906Z,10.60
2023-03-02T19:02:56.426Z,10.82
2023-03-02T19:05:26.773Z,9.93
2023-03-02T19:07:54.658Z,11.00
2023-03-02T19:10:23.353Z,10.07
2023-03-02T19:12:51.007Z,11.13
2023-03-02T19:15:18.564Z,9.65
2023-03-02T19:17:46.014Z,11.32
2023-03-02T19:20:14.107Z,10.40
2023-03-02T19:22:41.542Z,10.15
2023-03-02T19:25:09.912Z,10.13
2023-03-02T19:27:38.626Z,10.00
2023-03-02T19:30:07.036Z,10.48
2023-03-02T19:32:34.478Z,10.40
2023-03-02T19:35:02.225Z,9.27
2023-03-02T19:37:29.612Z,8.75
2023-03-02T19:39:57.030Z,9.93
2023-03-02T19:42:24.463Z,10.13
2023-03-02T19:44:53.160Z,9.73
2023-03-02T19:47:20.546Z,9.70
2023-03-02T19:49:47.953Z,9.60
2023-03-02T19:54:37.943Z,9.50
2023-03-02T19:57:05.968Z,9.07
2023-03-02T19:59:33.475Z,10.55
2023-03-02T20:02:02.369Z,9.52
2023-03-02T20:04:30.383Z,9.02
2023-03-02T20:06:58.792Z,9.43
2023-03-02T20:09:27.705Z,9.95
2023-03-02T20:11:55.086Z,9.23
2023-03-02T20:14:33.361Z,8.68
2023-03-02T20:17:02.733Z,10.20
2023-03-02T20:19:30.113Z,10.13
2023-03-02T20:21:57.496Z,8.90
2023-03-02T20:24:24.883Z,9.90
2023-03-02T20:26:52.282Z,10.18
2023-03-02T20:29:19.786Z,10.32
2023-03-02T20:31:47.236Z,10.68
2023-03-02T20:34:16.886Z,9.85
2023-03-02T20:36:44.272Z,9.90
2023-03-02T20:39:13.512Z,11.60
2023-03-02T20:41:40.908Z,10.83
2023-03-02T20:44:09.011Z,10.73
2023-03-02T20:46:39.733Z,9.90
2023-03-02T20:49:07.760Z,10.23
2023-03-02T20:51:36.460Z,11.50
2023-03-02T20:54:04.338Z,9.23
2023-03-02T20:56:31.723Z,10.75
2023-03-02T20:58:59.122Z,9.77
2023-03-02T21:01:26.669Z,10.88
2023-03-02T21:03:54.083Z,11.00
2023-03-02T21:06:21.452Z,10.70
2023-03-02T21:08:50.350Z,10.25
2023-03-02T21:11:19.960Z,11.73
2023-03-02T21:13:48.139Z,9.50
2023-03-02T21:16:16.421Z,10.38
2023-03-02T21:18:43.829Z,9.75
2023-03-02T21:21:11.207Z,9.80
2023-03-02T21:23:41.443Z,8.35
2023-03-02T21:28:37.510Z,10.75
2023-03-02T21:31:05.279Z,12.02
2023-03-02T21:33:32.703Z,10.00
2023-03-02T21:36:00.126Z,9.90
2023-03-02T21:38:27.674Z,10.30
2023-03-02T21:40:55.077Z,10.45
2023-03-02T21:43:24.149Z,11.35
2023-03-02T21:45:51.699Z,10.07
2023-03-02T21:48:20.734Z,11.38
2023-03-02T21:53:16.963Z,10.13
2023-03-02T21:55:45.530Z,10.20
2023-03-02T21:58:12.918Z,9.55
2023-03-02T22:00:42.775Z,9.73
2023-03-02T22:03:10.173Z,10.65
2023-03-02T22:05:37.812Z,11.02
2023-03-02T22:08:05.350Z,11.30
2023-03-02T22:10:34.268Z,11.25
2023-03-02T22:13:14.626Z,11.50
2023-03-02T22:15:43.314Z,11.80
2023-03-02T22:18:12.068Z,10.98
2023-03-02T22:20:40.154Z,11.13
2023-03-02T22:23:11.447Z,11.85
2023-03-02T22:25:38.840Z,11.68
2023-03-02T22:28:14.179Z,12.40
2023-03-02T22:30:42.929Z,12.55
2023-03-02T22:33:18.846Z,13.20
2023-03-02T22:35:46.472Z,13.07
2023-03-02T22:38:14.768Z,12.00
2023-03-02T22:40:42.811Z,11.68
2023-03-02T22:43:14.920Z,10.63
2023-03-02T22:45:43.616Z,12.02
2023-03-02T22:48:14.471Z,10.95
2023-03-02T22:50:41.891Z,11.82
2023-03-02T22:53:25.711Z,12.93
2023-03-02T22:55:58.107Z,12.05
2023-03-02T22:58:44.247Z,11.95
2023-03-02T23:01:19.738Z,12.48
2023-03-02T23:03:47.556Z,13.48
2023-03-02T23:06:30.011Z,12.32
2023-03-02T23:08:58.182Z,12.55
2023-03-02T23:11:25.909Z,12.75
2023-03-02T23:13:53.597Z,13.18
2023-03-02T23:16:23.317Z,12.88
2023-03-02T23:18:50.900Z,10.85
2023-03-02T23:21:19.839Z,12.85
2023-03-02T23:23:47.396Z,11.77
2023-03-02T23:26:15.594Z,14.05
2023-03-02T23:28:43.035Z,14.80
2023-03-02T23:31:10.703Z,13.05
2023-03-02T23:33:39.500Z,13.38
2023-03-02T23:36:07.751Z,11.82
2023-03-02T23:38:35.121Z,12.88
2023-03-02T23:41:02.512Z,11.85
2023-03-02T23:43:29.923Z,13.73
2023-03-02T23:45:57.374Z,13.20
2023-03-02T23:48:24.806Z,12.65
2023-03-02T23:50:53.719Z,10.85
2023-03-02T23:53:21.113Z,11.70
2023-03-02T23:55:49.383Z,12.07
2023-03-02T23:58:16.870Z,12.85
